createdAt,value
2023-01-29T00:01:45.086Z,88.68
2023-01-29T00:04:13.394Z,88.53
2023-01-29T00:06:41.539Z,88.25
2023-01-29T00:09:10.189Z,88.02
2023-01-29T00:11:38.237Z,88.01
2023-01-29T00:14:06.977Z,88.25
2023-01-29T00:16:35.053Z,87.23
2023-01-29T00:19:03.625Z,86.77
2023-01-29T00:21:32.351Z,86.62
2023-01-29T00:24:00.984Z,86.67
2023-01-29T00:26:29.203Z,86.35
2023-01-29T00:28:57.685Z,86.22
2023-01-29T00:31:26.187Z,86.26
2023-01-29T00:33:54.383Z,85.82
2023-01-29T00:36:22.900Z,86.03
2023-01-29T00:38:59.757Z,86.34
2023-01-29T00:41:48.066Z,86.33
2023-01-29T00:44:35.483Z,86.19
2023-01-29T00:47:03.917Z,86.25
2023-01-29T00:49:32.252Z,86.49
2023-01-29T00:52:19.152Z,86.31
2023-01-29T00:54:47.128Z,86.32
2023-01-29T00:57:15.168Z,86.84
2023-01-29T00:59:43.218Z,87.14
2023-01-29T01:02:29.992Z,87.05
2023-01-29T01:04:58.051Z,87.36
2023-01-29T01:07:26.231Z,87.30
2023-01-29T01:10:13.043Z,87.25
2023-01-29T01:12:41.160Z,87.23
2023-01-29T01:15:09.647Z,86.86
2023-01-29T01:17:38.091Z,86.39
2023-01-29T01:20:06.335Z,86.23
2023-01-29T01:22:35.883Z,86.35
2023-01-29T01:25:04.139Z,86.19
2023-01-29T01:27:32.348Z,86.09
2023-01-29T01:30:00.585Z,86.14
2023-01-29T01:32:28.805Z,86.02
2023-01-29T01:34:57.080Z,85.84
2023-01-29T01:37:25.158Z,85.62
2023-01-29T01:39:57.909Z,85.70
2023-01-29T01:42:30.611Z,85.80
2023-01-29T01:45:04.998Z,86.00
2023-01-29T01:47:32.937Z,85.90
2023-01-29T01:50:03.400Z,86.00
2023-01-29T01:52:31.933Z,86.04
2023-01-29T01:55:00.767Z,85.79
2023-01-29T01:57:29.713Z,86.25
2023-01-29T02:00:11.403Z,86.12
2023-01-29T02:03:03.664Z,86.22
2023-01-29T02:05:52.177Z,86.35
2023-01-29T02:08:45.308Z,86.62
2023-01-29T02:11:13.419Z,86.49
2023-01-29T02:13:42.899Z,86.46
2023-01-29T02:16:11.032Z,86.18
2023-01-29T02:18:39.555Z,85.93
2023-01-29T02:21:07.688Z,85.32
2023-01-29T02:24:08.210Z,85.22
2023-01-29T02:27:00.268Z,84.91
2023-01-29T02:29:33.793Z,84.88
2023-01-29T02:32:14.580Z,84.89
2023-01-29T02:35:20.935Z,85.07
2023-01-29T02:37:54.763Z,84.98
2023-01-29T02:40:28.920Z,84.74
2023-01-29T02:42:56.909Z,84.49
2023-01-29T02:45:32.905Z,84.53
2023-01-29T02:48:02.113Z,84.98
2023-01-29T02:50:37.548Z,85.51
2023-01-29T02:53:05.651Z,86.52
2023-01-29T02:55:37.373Z,86.72
2023-01-29T02:58:25.680Z,86.97
2023-01-29T03:00:55.615Z,86.62
2023-01-29T03:03:26.925Z,85.97
2023-01-29T03:06:07.461Z,84.56
2023-01-29T03:08:42.931Z,83.86
2023-01-29T03:11:13.878Z,83.90
2023-01-29T03:13:52.786Z,83.76
2023-01-29T03:16:33.097Z,83.74
2023-01-29T03:19:14.288Z,84.29
2023-01-29T03:21:53.876Z,84.71
2023-01-29T03:24:45.116Z,85.03
2023-01-29T03:27:33.493Z,85.18
2023-01-29T03:30:20.581Z,84.76
2023-01-29T03:32:54.293Z,84.70
2023-01-29T03:35:35.587Z,84.83
2023-01-29T03:38:05.784Z,85.13
2023-01-29T03:40:57.161Z,85.14
2023-01-29T03:43:38.015Z,84.61
2023-01-29T03:46:35.602Z,83.97
2023-01-29T03:49:12.906Z,83.29
2023-01-29T03:51:41.030Z,83.07
2023-01-29T03:54:12.117Z,82.50
2023-01-29T03:56:40.291Z,82.21
2023-01-29T03:59:14.687Z,81.98
2023-01-29T04:02:30.539Z,82.01
2023-01-29T04:05:05.884Z,81.94
2023-01-29T04:07:36.694Z,81.87
2023-01-29T04:10:04.927Z,81.32
2023-01-29T04:12:41.248Z,81.40
2023-01-29T04:15:11.570Z,81.33
2023-01-29T04:17:41.476Z,81.68
2023-01-29T04:20:18.088Z,81.93
2023-01-29T04:22:48.227Z,81.71
2023-01-29T04:25:26.732Z,81.48
2023-01-29T04:28:31.917Z,81.14
2023-01-29T04:31:07.058Z,80.81
2023-01-29T04:33:40.276Z,81.78
2023-01-29T04:36:11.631Z,81.52
2023-01-29T04:38:47.869Z,81.42
2023-01-29T04:41:24.884Z,81.53
2023-01-29T04:44:03.669Z,81.12
2023-01-29T04:46:50.909Z,80.90
2023-01-29T04:49:27.644Z,81.04
2023-01-29T04:51:55.775Z,80.80
2023-01-29T04:54:23.765Z,80.87
2023-01-29T04:57:12.462Z,80.99
2023-01-29T04:59:42.734Z,80.37
2023-01-29T05:02:12.357Z,80.55
2023-01-29T05:04:41.798Z,80.81
2023-01-29T05:07:11.853Z,80.09
2023-01-29T05:09:42.381Z,80.92
2023-01-29T05:12:11.775Z,81.02
2023-01-29T05:14:42.638Z,81.12
2023-01-29T05:17:14.448Z,81.11
2023-01-29T05:19:42.717Z,80.43
2023-01-29T05:22:11.555Z,79.66
2023-01-29T05:24:39.563Z,79.40
2023-01-29T05:27:30.486Z,79.64
2023-01-29T05:29:58.521Z,79.35
2023-01-29T05:32:26.525Z,79.88
2023-01-29T05:34:54.555Z,80.10
2023-01-29T05:37:22.688Z,79.84
2023-01-29T05:39:50.636Z,80.16
2023-01-29T05:42:18.738Z,80.35
2023-01-29T05:44:46.734Z,80.47
2023-01-29T05:47:14.762Z,80.69
2023-01-29T05:49:42.748Z,80.59
2023-01-29T05:52:10.763Z,80.30
2023-01-29T05:54:38.716Z,80.25
2023-01-29T05:57:06.627Z,79.96
2023-01-29T05:59:34.663Z,79.59
2023-01-29T06:02:02.708Z,79.70
2023-01-29T06:04:30.705Z,79.52
2023-01-29T06:06:58.758Z,79.41
2023-01-29T06:09:26.797Z,79.45
2023-01-29T06:11:54.773Z,79.54
2023-01-29T06:14:22.835Z,79.83
2023-01-29T06:16:50.744Z,79.76
2023-01-29T06:19:19.021Z,79.81
2023-01-29T06:21:46.972Z,79.66
2023-01-29T06:24:15.034Z,79.40
2023-01-29T06:26:43.263Z,79.26
2023-01-29T06:29:11.280Z,79.32
2023-01-29T06:31:39.915Z,79.47
2023-01-29T06:34:08.552Z,79.36
2023-01-29T06:36:36.772Z,79.29
2023-01-29T06:39:04.952Z,80.07
2023-01-29T06:41:33.134Z,79.51
2023-01-29T06:44:01.085Z,79.60
2023-01-29T06:46:29.186Z,79.49
2023-01-29T06:49:00.875Z,78.74
2023-01-29T06:51:29.076Z,78.87
2023-01-29T06:53:57.202Z,78.52
2023-01-29T06:56:25.295Z,78.43
2023-01-29T06:58:53.485Z,78.11
2023-01-29T07:01:34.997Z,77.29
2023-01-29T07:04:04.294Z,77.20
2023-01-29T07:06:32.651Z,77.74
2023-01-29T07:09:00.849Z,77.69
2023-01-29T07:11:28.837Z,77.56
2023-01-29T07:13:56.975Z,77.91
2023-01-29T07:16:26.445Z,77.23
2023-01-29T07:18:54.819Z,76.82
2023-01-29T07:21:23.136Z,76.86
2023-01-29T07:23:51.276Z,76.18
2023-01-29T07:26:19.355Z,75.65
2023-01-29T07:28:47.312Z,75.45
2023-01-29T07:31:15.673Z,74.65
2023-01-29T07:33:44.694Z,74.66
2023-01-29T07:36:13.345Z,74.28
2023-01-29T07:38:41.599Z,73.96
2023-01-29T07:41:11.442Z,74.13
2023-01-29T07:43:39.433Z,73.99
2023-01-29T07:46:07.456Z,73.93
2023-01-29T07:48:35.827Z,74.51
2023-01-29T07:51:03.891Z,74.39
2023-01-29T07:53:32.076Z,73.66
2023-01-29T07:56:00.174Z,74.21
2023-01-29T07:58:28.219Z,73.99
2023-01-29T08:00:56.376Z,73.31
2023-01-29T08:03:24.510Z,72.89
2023-01-29T08:05:52.520Z,72.13
2023-01-29T08:08:20.523Z,72.08
2023-01-29T08:10:48.456Z,72.04
2023-01-29T08:13:16.444Z,72.09
2023-01-29T08:15:45.669Z,71.59
2023-01-29T08:18:14.315Z,71.20
2023-01-29T08:20:42.346Z,71.24
2023-01-29T08:23:13.577Z,71.43
2023-01-29T08:25:41.798Z,71.13
2023-01-29T08:28:10.034Z,70.74
2023-01-29T08:30:38.089Z,69.61
2023-01-29T08:33:06.135Z,69.72
2023-01-29T08:35:34.070Z,70.49
2023-01-29T08:38:03.539Z,70.44
2023-01-29T08:40:33.289Z,69.65
2023-01-29T08:43:03.183Z,70.18
2023-01-29T08:45:34.265Z,69.75
2023-01-29T08:48:02.524Z,69.30
2023-01-29T08:50:31.897Z,68.99
2023-01-29T08:53:00.789Z,69.10
2023-01-29T08:55:29.010Z,69.47
2023-01-29T08:57:59.600Z,69.79
2023-01-29T09:00:27.658Z,69.33
2023-01-29T09:02:55.698Z,68.68
2023-01-29T09:05:23.702Z,68.24
2023-01-29T09:07:53.345Z,68.46
2023-01-29T09:10:22.097Z,69.15
2023-01-29T09:12:50.084Z,69.26
2023-01-29T09:15:18.314Z,68.71
2023-01-29T09:17:46.591Z,69.45
2023-01-29T09:20:14.495Z,68.95
2023-01-29T09:22:42.585Z,69.07
2023-01-29T09:25:11.029Z,68.67
2023-01-29T09:27:39.005Z,68.42
2023-01-29T09:30:07.437Z,68.11
2023-01-29T09:35:23.797Z,67.04
2023-01-29T09:37:51.912Z,66.43
2023-01-29T09:40:30.911Z,66.45
2023-01-29T09:43:03.033Z,66.36
2023-01-29T09:45:31.661Z,66.59
2023-01-29T09:48:02.443Z,66.71
2023-01-29T09:50:30.578Z,66.50
2023-01-29T09:53:04.981Z,66.90
2023-01-29T09:56:02.885Z,66.64
2023-01-29T09:58:33.704Z,66.71
2023-01-29T10:01:07.812Z,66.74
2023-01-29T10:03:38.926Z,66.12
2023-01-29T10:06:13.094Z,66.71
2023-01-29T10:08:46.835Z,66.54
2023-01-29T10:11:24.826Z,65.77
2023-01-29T10:14:11.882Z,65.73
2023-01-29T10:16:39.895Z,65.00
2023-01-29T10:19:07.987Z,65.35
2023-01-29T10:21:51.574Z,65.81
2023-01-29T10:24:24.248Z,65.65
2023-01-29T10:26:52.787Z,65.51
2023-01-29T10:29:22.256Z,66.10
2023-01-29T10:31:54.013Z,66.15
2023-01-29T10:34:30.339Z,65.72
2023-01-29T10:36:58.300Z,65.75
2023-01-29T10:39:27.065Z,65.28
2023-01-29T10:42:05.866Z,65.55
2023-01-29T10:44:33.736Z,66.12
2023-01-29T10:47:10.450Z,66.48
2023-01-29T10:49:41.388Z,66.84
2023-01-29T10:52:29.984Z,67.32
2023-01-29T10:55:04.624Z,67.50
2023-01-29T10:57:41.682Z,67.02
2023-01-29T11:00:13.010Z,67.84
2023-01-29T11:02:51.319Z,68.13
2023-01-29T11:05:19.492Z,68.33
2023-01-29T11:07:49.219Z,67.79
2023-01-29T11:10:21.404Z,68.00
2023-01-29T11:12:49.993Z,68.05
2023-01-29T11:15:30.727Z,68.22
2023-01-29T11:18:06.562Z,68.04
2023-01-29T11:20:34.657Z,68.80
2023-01-29T11:23:02.847Z,68.99
2023-01-29T11:25:32.776Z,69.31
2023-01-29T11:28:02.081Z,69.51
2023-01-29T11:30:35.734Z,69.68
2023-01-29T11:33:09.118Z,69.42
2023-01-29T11:35:37.195Z,69.67
2023-01-29T11:38:14.440Z,69.37
2023-01-29T11:40:42.791Z,69.32
2023-01-29T11:43:18.628Z,69.71
2023-01-29T11:45:48.179Z,69.69
2023-01-29T11:48:18.113Z,69.93
2023-01-29T11:51:03.840Z,70.43
2023-01-29T11:53:41.132Z,69.96
2023-01-29T11:56:24.302Z,69.67
2023-01-29T11:58:55.573Z,69.68
2023-01-29T12:01:30.220Z,69.14
2023-01-29T12:03:58.716Z,69.56
2023-01-29T12:06:38.065Z,69.63
2023-01-29T12:09:11.219Z,69.79
2023-01-29T12:11:39.311Z,69.79
2023-01-29T12:14:24.084Z,69.92
2023-01-29T12:17:10.751Z,70.22
2023-01-29T12:19:50.285Z,70.34
2023-01-29T12:22:23.759Z,70.12
2023-01-29T12:25:12.022Z,70.01
2023-01-29T12:27:55.058Z,69.78
2023-01-29T12:30:32.271Z,70.30
2023-01-29T12:33:03.248Z,69.90
2023-01-29T12:35:46.191Z,69.66
2023-01-29T12:38:14.214Z,69.74
2023-01-29T12:40:45.454Z,70.43
2023-01-29T12:43:23.686Z,70.30
2023-01-29T12:45:54.220Z,70.97
2023-01-29T12:48:27.884Z,71.26
2023-01-29T12:50:59.566Z,71.06
2023-01-29T12:53:27.683Z,71.03
2023-01-29T12:56:00.192Z,70.65
2023-01-29T12:58:31.848Z,70.58
2023-01-29T13:01:23.121Z,70.04
2023-01-29T13:03:59.170Z,70.20
2023-01-29T13:06:30.795Z,70.06
2023-01-29T13:09:01.842Z,70.28
2023-01-29T13:11:37.185Z,70.23
2023-01-29T13:14:14.535Z,70.59
2023-01-29T13:16:44.492Z,70.39
2023-01-29T13:19:18.783Z,70.91
2023-01-29T13:21:47.708Z,71.17
2023-01-29T13:24:18.033Z,71.93
2023-01-29T13:26:46.512Z,71.59
2023-01-29T13:29:22.851Z,71.70
2023-01-29T13:31:52.416Z,71.66
2023-01-29T13:34:20.479Z,71.80
2023-01-29T13:36:50.035Z,72.01
2023-01-29T13:39:29.662Z,71.80
2023-01-29T13:41:59.365Z,72.19
2023-01-29T13:44:36.066Z,72.02
2023-01-29T13:47:06.697Z,72.27
2023-01-29T13:49:39.750Z,72.37
2023-01-29T13:52:26.296Z,72.02
2023-01-29T13:54:58.689Z,72.03
2023-01-29T13:57:44.919Z,72.71
2023-01-29T14:00:22.290Z,72.19
2023-01-29T14:03:08.716Z,72.12
2023-01-29T14:05:43.003Z,72.18
2023-01-29T14:08:13.843Z,71.96
2023-01-29T14:10:42.874Z,72.29
2023-01-29T14:13:19.979Z,72.03
2023-01-29T14:15:57.169Z,71.78
2023-01-29T14:18:29.401Z,71.52
2023-01-29T14:20:59.405Z,71.40
2023-01-29T14:23:30.338Z,71.76
2023-01-29T14:26:03.078Z,72.19
2023-01-29T14:28:32.296Z,72.45
2023-01-29T14:31:00.705Z,72.93
2023-01-29T14:33:43.457Z,73.18
2023-01-29T14:36:14.503Z,72.56
2023-01-29T14:38:53.774Z,72.74
2023-01-29T14:41:33.367Z,72.94
2023-01-29T14:44:21.373Z,72.54
2023-01-29T14:46:49.796Z,72.33
2023-01-29T14:49:37.692Z,72.49
2023-01-29T14:52:08.471Z,72.69
2023-01-29T14:54:39.603Z,72.76
2023-01-29T14:57:11.175Z,73.22
2023-01-29T14:59:46.314Z,73.01
2023-01-29T15:02:37.534Z,72.76
2023-01-29T15:05:08.227Z,73.07
2023-01-29T15:07:43.103Z,73.16
2023-01-29T15:10:24.481Z,73.52
2023-01-29T15:12:56.360Z,73.21
2023-01-29T15:15:24.371Z,73.16
2023-01-29T15:18:01.997Z,73.04
2023-01-29T15:20:32.168Z,73.37
2023-01-29T15:23:03.481Z,73.59
2023-01-29T15:25:37.095Z,73.36
2023-01-29T15:28:10.269Z,73.13
2023-01-29T15:30:38.714Z,72.92
2023-01-29T15:33:10.563Z,73.11
2023-01-29T15:35:39.782Z,73.34
2023-01-29T15:38:15.929Z,73.42
2023-01-29T15:40:53.256Z,73.80
2023-01-29T15:43:22.749Z,73.83
2023-01-29T15:45:51.725Z,74.28
2023-01-29T15:48:22.850Z,74.36
2023-01-29T15:50:54.460Z,74.54
2023-01-29T15:53:28.181Z,74.49
2023-01-29T15:55:58.303Z,74.12
2023-01-29T15:58:31.341Z,73.93
2023-01-29T16:01:00.568Z,73.80
2023-01-29T16:03:31.044Z,73.96
2023-01-29T16:05:59.544Z,73.93
2023-01-29T16:08:28.226Z,73.83
2023-01-29T16:11:03.673Z,73.53
2023-01-29T16:13:36.920Z,73.50
2023-01-29T16:16:16.939Z,73.44
2023-01-29T16:18:58.934Z,73.43
2023-01-29T16:21:37.110Z,73.80
2023-01-29T16:24:11.908Z,73.71
2023-01-29T16:26:43.577Z,73.70
2023-01-29T16:29:13.334Z,73.19
2023-01-29T16:31:43.149Z,73.14
2023-01-29T16:34:32.727Z,72.99
2023-01-29T16:37:02.028Z,72.67
2023-01-29T16:39:32.838Z,73.01
2023-01-29T16:42:10.181Z,73.93
2023-01-29T16:44:39.466Z,74.22
2023-01-29T16:47:15.081Z,74.47
2023-01-29T16:49:44.364Z,73.61
2023-01-29T16:52:31.893Z,73.73
2023-01-29T16:55:21.516Z,73.83
2023-01-29T16:57:53.267Z,73.99
2023-01-29T17:00:31.087Z,74.10
2023-01-29T17:03:08.376Z,73.55
2023-01-29T17:05:38.085Z,73.19
2023-01-29T17:08:07.179Z,72.95
2023-01-29T17:10:36.054Z,72.59
2023-01-29T17:13:06.468Z,72.88
2023-01-29T17:15:34.481Z,73.46
2023-01-29T17:18:03.187Z,73.70
2023-01-29T17:20:31.920Z,73.23
2023-01-29T17:23:00.157Z,73.67
2023-01-29T17:25:29.232Z,73.99
2023-01-29T17:27:59.993Z,73.97
2023-01-29T17:30:30.793Z,74.13
2023-01-29T17:32:58.784Z,73.98
2023-01-29T17:35:26.792Z,74.27
2023-01-29T17:37:54.884Z,74.46
2023-01-29T17:40:30.116Z,74.43
2023-01-29T17:42:58.244Z,74.54
2023-01-29T17:45:26.521Z,74.45
2023-01-29T17:47:54.608Z,74.47
2023-01-29T17:50:25.107Z,74.29
2023-01-29T17:52:54.139Z,74.27
2023-01-29T17:55:22.165Z,74.46
2023-01-29T17:57:50.255Z,74.29
2023-01-29T18:00:19.876Z,74.39
2023-01-29T18:02:48.461Z,74.20
2023-01-29T18:05:17.623Z,74.20
2023-01-29T18:07:47.308Z,74.49
2023-01-29T18:10:19.682Z,74.47
2023-01-29T18:12:47.633Z,74.39
2023-01-29T18:15:16.123Z,74.15
2023-01-29T18:17:44.731Z,74.05
2023-01-29T18:20:20.918Z,73.54
2023-01-29T18:22:49.019Z,73.58
2023-01-29T18:25:17.705Z,73.22
2023-01-29T18:27:45.965Z,73.00
2023-01-29T18:30:14.206Z,73.15
2023-01-29T18:32:42.285Z,73.64
2023-01-29T18:35:10.360Z,73.68
2023-01-29T18:37:38.477Z,73.48
2023-01-29T18:40:06.776Z,73.59
2023-01-29T18:42:36.052Z,74.28
2023-01-29T18:45:04.881Z,74.13
2023-01-29T18:47:32.968Z,74.29
2023-01-29T18:50:00.975Z,74.43
2023-01-29T18:52:28.984Z,74.15
2023-01-29T18:54:57.149Z,74.06
2023-01-29T18:58:29.566Z,73.99
2023-01-29T19:00:13.693Z,74.17
2023-01-29T19:02:43.099Z,74.13
2023-01-29T19:05:11.716Z,74.33
2023-01-29T19:07:39.895Z,74.39
2023-01-29T19:10:12.625Z,74.34
2023-01-29T19:12:42.392Z,74.23
2023-01-29T19:15:11.430Z,74.12
2023-01-29T19:17:39.491Z,74.42
2023-01-29T19:20:09.721Z,74.59
2023-01-29T19:22:37.779Z,74.46
2023-01-29T19:25:06.290Z,74.30
2023-01-29T19:27:34.318Z,73.81
2023-01-29T19:30:04.598Z,73.59
2023-01-29T19:32:32.711Z,73.46
2023-01-29T19:35:00.725Z,73.39
2023-01-29T19:37:30.607Z,73.47
2023-01-29T19:39:58.796Z,73.16
2023-01-29T19:42:27.489Z,73.10
2023-01-29T19:44:55.488Z,73.05
2023-01-29T19:47:23.495Z,72.70
2023-01-29T19:49:51.626Z,72.09
2023-01-29T19:52:51.285Z,72.24
2023-01-29T19:55:21.163Z,72.06
2023-01-29T19:57:51.822Z,72.00
2023-01-29T20:00:22.506Z,72.10
2023-01-29T20:02:50.508Z,72.15
2023-01-29T20:05:20.529Z,71.73
2023-01-29T20:07:50.054Z,70.54
2023-01-29T20:10:18.830Z,70.60
2023-01-29T20:12:47.038Z,70.95
2023-01-29T20:15:15.117Z,71.13
2023-01-29T20:17:45.504Z,71.20
2023-01-29T20:20:14.013Z,70.75
2023-01-29T20:22:42.129Z,70.82
2023-01-29T20:25:10.250Z,70.88
2023-01-29T20:27:38.214Z,71.42
2023-01-29T20:30:06.498Z,71.17
2023-01-29T20:32:35.400Z,70.89
2023-01-29T20:35:03.454Z,70.69
2023-01-29T20:37:31.459Z,70.01
2023-01-29T20:39:59.420Z,70.14
2023-01-29T20:42:27.341Z,70.22
2023-01-29T20:44:55.450Z,70.04
2023-01-29T20:47:23.588Z,70.37
2023-01-29T20:49:51.568Z,70.00
2023-01-29T20:52:19.731Z,69.46
2023-01-29T20:54:48.079Z,69.44
2023-01-29T20:57:16.328Z,69.45
2023-01-29T20:59:45.265Z,69.87
2023-01-29T21:02:13.321Z,69.79
2023-01-29T21:04:43.545Z,70.03
2023-01-29T21:07:12.283Z,69.59
2023-01-29T21:09:40.236Z,69.54
2023-01-29T21:12:08.729Z,68.99
2023-01-29T21:14:36.746Z,68.75
2023-01-29T21:17:05.038Z,68.32
2023-01-29T21:19:33.164Z,68.62
2023-01-29T21:22:01.301Z,68.43
2023-01-29T21:24:29.679Z,67.98
2023-01-29T21:26:57.685Z,68.43
2023-01-29T21:29:25.834Z,68.63
2023-01-29T21:31:53.927Z,68.91
2023-01-29T21:34:21.899Z,68.76
2023-01-29T21:36:50.059Z,68.65
2023-01-29T21:39:19.686Z,68.70
2023-01-29T21:42:07.747Z,68.84
2023-01-29T21:44:36.257Z,69.24
2023-01-29T21:47:14.079Z,69.01
2023-01-29T21:49:43.217Z,68.89
2023-01-29T21:52:12.332Z,68.19
2023-01-29T21:54:40.760Z,68.08
2023-01-29T21:57:12.275Z,68.28
2023-01-29T21:59:40.475Z,68.44
2023-01-29T22:02:14.828Z,67.95
2023-01-29T22:04:43.598Z,68.10
2023-01-29T22:07:12.591Z,67.54
2023-01-29T22:09:40.776Z,67.45
2023-01-29T22:12:09.334Z,67.77
2023-01-29T22:14:37.338Z,68.03
2023-01-29T22:17:05.505Z,68.10
2023-01-29T22:19:33.621Z,67.76
2023-01-29T22:22:01.706Z,67.77
2023-01-29T22:24:29.778Z,67.27
2023-01-29T22:26:57.755Z,67.68
2023-01-29T22:29:25.809Z,67.55
2023-01-29T22:31:53.916Z,67.54
2023-01-29T22:34:21.946Z,67.79
2023-01-29T22:36:50.056Z,67.66
2023-01-29T22:39:18.007Z,67.96
2023-01-29T22:41:47.401Z,67.66
2023-01-29T22:44:15.377Z,67.65
2023-01-29T22:46:43.485Z,68.29
2023-01-29T22:49:11.607Z,68.37
2023-01-29T22:51:39.709Z,68.45
2023-01-29T22:54:07.652Z,68.31
2023-01-29T22:56:35.664Z,68.60
2023-01-29T22:59:03.705Z,69.10
2023-01-29T23:01:32.217Z,68.83
2023-01-29T23:04:00.472Z,69.03
2023-01-29T23:06:28.569Z,68.64
2023-01-29T23:08:56.644Z,68.56
2023-01-29T23:11:24.745Z,68.76
2023-01-29T23:13:54.053Z,68.40
2023-01-29T23:16:25.788Z,68.84
2023-01-29T23:18:55.328Z,68.79
2023-01-29T23:21:25.257Z,68.94
2023-01-29T23:23:55.427Z,68.91
2023-01-29T23:26:42.188Z,68.91
2023-01-29T23:29:10.373Z,68.94
2023-01-29T23:31:38.676Z,68.99
2023-01-29T23:34:06.774Z,69.40
2023-01-29T23:36:34.761Z,69.09
2023-01-29T23:39:02.798Z,69.31
2023-01-29T23:41:30.840Z,69.26
2023-01-29T23:43:58.948Z,69.11
2023-01-29T23:46:26.938Z,69.30
2023-01-29T23:48:54.927Z,69.36
2023-01-29T23:51:22.941Z,69.48
2023-01-29T23:53:50.909Z,68.73
2023-01-29T23:56:18.966Z,68.83
2023-01-29T23:58:47.151Z,69.18
